Time;durP1;ratioP1;P1;durP2;ratioP2;P2;SDS_P1;SDS_P2;PMS_P1;PMS_P2;Temp;Humidity;BMP_temperature;BMP_pressure;BME280_temperature;BME280_humidity;BME280_pressure;Samples;Min_cycle;Max_cycle;Signal;HPM_P1;HPM_P2
2022/04/13 00:01:41;;;;;;;9.65;3.75;;;17.00;99.80;;;;;;6247362;22;20010;-73
2022/04/13 00:04:07;;;;;;;7.72;3.80;;;17.00;98.20;;;;;;6247058;23;20063;-73
2022/04/13 00:06:38;;;;;;;9.57;3.15;;;16.90;98.60;;;;;;6247203;23;20008;-73
2022/04/13 00:09:07;;;;;;;8.95;3.92;;;16.90;98.80;;;;;;6247082;22;20000;-73
2022/04/13 00:11:34;;;;;;;11.82;3.72;;;16.90;98.70;;;;;;6246972;22;20000;-73
2022/04/13 00:14:00;;;;;;;10.02;3.47;;;16.80;98.40;;;;;;6246872;22;20003;-74
2022/04/13 00:16:26;;;;;;;6.28;2.92;;;16.80;98.40;;;;;;6246552;22;20005;-73
2022/04/13 00:18:52;;;;;;;8.43;3.25;;;16.80;99.60;;;;;;6246767;22;19996;-73
2022/04/13 00:21:17;;;;;;;8.05;3.35;;;16.80;99.60;;;;;;6246829;23;20004;-73
2022/04/13 00:23:43;;;;;;;8.25;3.70;;;16.80;99.50;;;;;;6247086;23;20005;-73
2022/04/13 00:26:08;;;;;;;8.98;3.55;;;16.80;99.40;;;;;;6246909;23;20421;-73
2022/04/13 00:28:34;;;;;;;6.47;3.53;;;16.80;98.70;;;;;;6246711;23;20414;-73
2022/04/13 00:31:00;;;;;;;6.60;3.55;;;16.80;98.70;;;;;;6247001;23;20004;-73
2022/04/13 00:33:25;;;;;;;7.85;3.72;;;16.80;98.50;;;;;;6246708;23;20015;-73
2022/04/13 00:35:56;;;;;;;12.23;3.83;;;16.70;98.50;;;;;;6247013;23;20004;-73
2022/04/13 00:38:22;;;;;;;7.38;4.13;;;16.70;98.50;;;;;;6247169;22;20003;-73
2022/04/13 00:40:49;;;;;;;10.80;3.95;;;16.70;98.40;;;;;;6247010;23;20008;-73
2022/04/13 00:43:14;;;;;;;6.93;3.20;;;16.60;98.40;;;;;;6246877;22;20004;-73
2022/04/13 00:45:47;;;;;;;10.20;3.65;;;16.70;99.80;;;;;;6245215;23;20367;-73
2022/04/13 00:48:28;;;;;;;;;;;16.60;98.60;;;;;;6247436;22;20414;-72
2022/04/13 00:50:54;;;;;;;8.30;3.88;;;16.60;99.40;;;;;;6246809;22;19994;-73
2022/04/13 00:53:23;;;;;;;7.32;3.22;;;16.60;99.00;;;;;;6246831;22;20004;-73
2022/04/13 00:55:53;;;;;;;13.68;3.42;;;16.60;98.70;;;;;;6246306;22;20031;-72
2022/04/13 00:58:22;;;;;;;8.68;3.08;;;16.60;98.80;;;;;;6246741;23;20424;-73
2022/04/13 01:00:49;;;;;;;9.43;4.35;;;16.60;99.20;;;;;;6246756;22;20008;-73
2022/04/13 01:03:19;;;;;;;8.52;3.42;;;16.50;98.90;;;;;;6247001;22;20004;-73
2022/04/13 01:05:49;;;;;;;7.53;3.70;;;16.50;99.80;;;;;;6270741;22;20007;-73
2022/04/13 01:08:17;;;;;;;10.45;4.00;;;16.40;99.70;;;;;;6246696;22;20066;-72
2022/04/13 01:10:43;;;;;;;6.18;3.72;;;16.40;99.20;;;;;;6246667;22;19996;-72
2022/04/13 01:13:10;;;;;;;10.27;3.60;;;16.40;99.40;;;;;;6246979;22;20445;-72
2022/04/13 01:15:36;;;;;;;12.60;4.13;;;16.30;99.90;;;;;;6246547;22;20000;-73
2022/04/13 01:18:03;;;;;;;13.82;3.65;;;16.30;99.70;;;;;;6246959;22;20026;-72
2022/04/13 01:20:29;;;;;;;10.23;4.18;;;16.30;99.70;;;;;;6246911;22;20000;-72
2022/04/13 01:22:54;;;;;;;10.40;3.92;;;16.30;98.90;;;;;;6246697;22;20019;-73
2022/04/13 01:25:20;;;;;;;17.73;3.75;;;16.30;99.00;;;;;;6246476;23;20074;-72
2022/04/13 01:27:46;;;;;;;11.50;3.63;;;16.30;98.90;;;;;;6246257;23;20019;-72
2022/04/13 01:30:12;;;;;;;8.88;3.47;;;16.30;99.10;;;;;;6246775;23;20028;-73
2022/04/13 01:32:38;;;;;;;7.18;3.83;;;16.30;99.60;;;;;;6246558;22;20004;-73
2022/04/13 01:35:06;;;;;;;12.98;4.43;;;16.30;99.70;;;;;;6246628;23;19996;-72
2022/04/13 01:37:32;;;;;;;9.65;4.53;;;16.30;99.50;;;;;;6246395;22;19996;-73
2022/04/13 01:39:57;;;;;;;9.93;4.10;;;16.30;99.60;;;;;;6246089;23;20011;-72
2022/04/13 01:42:23;;;;;;;9.77;4.30;;;16.20;99.40;;;;;;6246202;23;20001;-73
2022/04/13 01:44:49;;;;;;;11.05;4.55;;;16.30;99.90;;;;;;6246462;22;20031;-72
2022/04/13 01:47:15;;;;;;;10.25;3.80;;;16.20;99.90;;;;;;6246249;23;20042;-72
2022/04/13 01:49:41;;;;;;;12.95;4.75;;;16.30;99.90;;;;;;6246730;22;20000;-72
2022/04/13 01:52:08;;;;;;;10.70;4.68;;;16.20;99.50;;;;;;6246433;22;20456;-72
2022/04/13 01:54:35;;;;;;;13.73;4.50;;;16.30;99.90;;;;;;6246137;23;20476;-72
2022/04/13 01:57:01;;;;;;;5.82;4.00;;;16.30;99.70;;;;;;6244817;23;20000;-72
2022/04/13 01:59:27;;;;;;;11.75;4.78;;;16.20;99.90;;;;;;6246203;22;20062;-72
2022/04/13 02:01:53;;;;;;;13.98;5.00;;;16.20;99.70;;;;;;6246241;22;20014;-72
2022/04/13 02:04:21;;;;;;;16.67;5.38;;;16.20;99.90;;;;;;6246261;23;20031;-72
2022/04/13 02:06:48;;;;;;;16.90;5.13;;;16.20;99.90;;;;;;6245765;22;20015;-72
2022/04/13 02:09:15;;;;;;;15.23;5.20;;;16.20;99.90;;;;;;6244350;23;20004;-72
2022/04/13 02:11:40;;;;;;;16.33;5.22;;;16.20;99.90;;;;;;6246055;22;20425;-72
2022/04/13 02:14:07;;;;;;;8.57;5.63;;;16.20;99.90;;;;;;6246226;23;20014;-73
2022/04/13 02:16:33;;;;;;;11.85;5.53;;;16.20;99.90;;;;;;6246675;22;20022;-73
2022/04/13 02:18:59;;;;;;;13.00;4.95;;;16.20;99.90;;;;;;6246228;22;20003;-72
2022/04/13 02:21:24;;;;;;;11.73;5.00;;;16.20;99.90;;;;;;6246147;23;20333;-73
2022/04/13 02:23:50;;;;;;;10.57;5.25;;;16.20;99.90;;;;;;6245551;23;20054;-72
2022/04/13 02:26:17;;;;;;;11.55;5.10;;;16.20;99.90;;;;;;6243871;23;20436;-73
2022/04/13 02:28:42;;;;;;;12.57;5.10;;;16.20;99.90;;;;;;6245519;22;20479;-72
2022/04/13 02:31:08;;;;;;;11.43;5.78;;;16.20;99.90;;;;;;6245529;23;20000;-73
2022/04/13 02:33:34;;;;;;;12.75;4.82;;;16.20;99.90;;;;;;6246253;22;19997;-73
2022/04/13 02:35:59;;;;;;;12.48;5.63;;;16.20;99.90;;;;;;6245857;23;20001;-73
2022/04/13 02:38:25;;;;;;;11.90;5.25;;;16.10;99.90;;;;;;6245287;23;20015;-72
2022/04/13 02:40:52;;;;;;;11.43;5.70;;;16.10;99.90;;;;;;6245650;23;20003;-72
2022/04/13 02:43:18;;;;;;;9.35;4.90;;;16.10;99.90;;;;;;6245866;22;20054;-72
2022/04/13 02:45:44;;;;;;;9.80;4.82;;;16.10;99.90;;;;;;6245914;22;19996;-72
2022/04/13 02:48:09;;;;;;;8.95;5.30;;;16.10;99.90;;;;;;6245636;23;20000;-73
2022/04/13 02:50:35;;;;;;;10.05;4.60;;;16.10;99.90;;;;;;6246543;23;20008;-72
2022/04/13 02:53:01;;;;;;;10.63;5.50;;;16.10;99.90;;;;;;6245313;23;20008;-72
2022/04/13 02:55:26;;;;;;;10.02;5.28;;;16.10;99.90;;;;;;6245863;23;20001;-72
2022/04/13 02:57:52;;;;;;;9.00;4.85;;;16.10;99.90;;;;;;6245365;23;20000;-72
2022/04/13 03:00:18;;;;;;;14.65;5.28;;;16.00;99.90;;;;;;6245612;23;20012;-73
2022/04/13 03:02:44;;;;;;;12.70;5.43;;;16.00;99.90;;;;;;6245457;23;20000;-72
2022/04/13 03:05:10;;;;;;;8.52;4.22;;;16.00;99.90;;;;;;6245854;22;20004;-72
2022/04/13 03:07:37;;;;;;;14.93;5.65;;;15.90;99.90;;;;;;6245477;23;20022;-72
2022/04/13 03:10:06;;;;;;;11.23;4.82;;;15.90;99.90;;;;;;6243896;23;20007;-72
2022/04/13 03:12:35;;;;;;;10.52;5.10;;;15.80;99.90;;;;;;6245543;22;20076;-73
2022/04/13 03:15:05;;;;;;;12.25;5.38;;;15.80;99.90;;;;;;6245813;22;20302;-73
2022/04/13 03:17:31;;;;;;;11.40;3.72;;;15.80;99.90;;;;;;6245531;22;20010;-72
2022/04/13 03:19:56;;;;;;;13.63;5.28;;;15.80;99.90;;;;;;6247326;22;20008;-72
2022/04/13 03:22:25;;;;;;;8.32;4.65;;;15.70;99.90;;;;;;6247245;23;20050;-72
2022/04/13 03:24:54;;;;;;;12.55;5.07;;;15.70;99.90;;;;;;6247405;23;20003;-72
2022/04/13 03:27:20;;;;;;;8.93;4.90;;;15.60;99.90;;;;;;6248552;22;20008;-72
2022/04/13 03:29:46;;;;;;;9.68;5.28;;;15.60;99.90;;;;;;6247667;23;20001;-72
2022/04/13 03:32:12;;;;;;;12.55;5.78;;;15.60;99.90;;;;;;6247313;22;20007;-72
2022/04/13 03:34:37;;;;;;;7.45;5.15;;;15.50;99.90;;;;;;6247581;23;19996;-72
2022/04/13 03:37:03;;;;;;;11.77;5.28;;;15.50;99.90;;;;;;6247473;23;20444;-72
2022/04/13 03:39:29;;;;;;;15.95;6.00;;;15.50;99.90;;;;;;6247466;22;20476;-72
2022/04/13 03:41:55;;;;;;;9.88;6.38;;;15.50;99.90;;;;;;6247609;22;20001;-72
2022/04/13 03:44:21;;;;;;;9.70;5.10;;;15.40;99.90;;;;;;6247681;22;20118;-72
2022/04/13 03:46:47;;;;;;;11.85;5.57;;;15.40;99.90;;;;;;6247470;23;20146;-72
2022/04/13 03:49:13;;;;;;;15.25;6.10;;;15.40;99.90;;;;;;6245502;23;20321;-72
2022/04/13 03:51:38;;;;;;;11.63;5.75;;;15.30;99.90;;;;;;6247295;22;20049;-72
2022/04/13 03:54:04;;;;;;;11.05;6.10;;;15.30;99.90;;;;;;6247388;23;20004;-72
2022/04/13 03:56:30;;;;;;;11.70;5.78;;;15.30;99.90;;;;;;6246013;23;19996;-73
2022/04/13 03:59:09;;;;;;;12.88;5.35;;;15.30;99.90;;;;;;6247117;23;20004;-72
2022/04/13 04:01:35;;;;;;;11.35;5.40;;;15.20;99.90;;;;;;6245765;23;20310;-72
2022/04/13 04:04:01;;;;;;;9.70;5.50;;;15.10;99.90;;;;;;6246458;22;20000;-72
2022/04/13 04:06:27;;;;;;;12.38;5.75;;;15.10;99.90;;;;;;6247425;22;20016;-72
2022/04/13 04:08:52;;;;;;;10.15;5.72;;;15.10;99.90;;;;;;6246941;23;20007;-72
2022/04/13 04:11:18;;;;;;;11.18;6.00;;;15.10;99.90;;;;;;6246880;23;20050;-72
2022/04/13 04:13:44;;;;;;;12.05;6.35;;;15.00;99.90;;;;;;6247504;22;20004;-72
2022/04/13 04:16:10;;;;;;;10.48;5.38;;;15.00;99.90;;;;;;6247364;23;20050;-74
2022/04/13 04:18:35;;;;;;;13.70;6.25;;;15.00;99.90;;;;;;6246887;23;20004;-72
2022/04/13 04:21:01;;;;;;;14.18;7.07;;;15.00;99.90;;;;;;6246975;23;20008;-73
2022/04/13 04:23:27;;;;;;;13.93;6.35;;;14.90;99.90;;;;;;6247457;22;20377;-72
2022/04/13 04:25:52;;;;;;;15.88;5.78;;;14.90;99.90;;;;;;6247046;23;20000;-71
2022/04/13 04:28:18;;;;;;;9.95;5.30;;;14.90;99.90;;;;;;6247353;23;20011;-74
2022/04/13 04:30:43;;;;;;;11.13;5.13;;;14.80;99.90;;;;;;6245054;23;20310;-74
2022/04/13 04:33:14;;;;;;;11.55;5.68;;;14.80;99.90;;;;;;6247246;22;20000;-73
2022/04/13 04:35:40;;;;;;;11.27;6.40;;;14.80;99.90;;;;;;6247144;22;20451;-73
2022/04/13 04:38:05;;;;;;;15.00;6.05;;;14.80;99.90;;;;;;6246712;23;20008;-73
2022/04/13 04:40:31;;;;;;;15.55;6.70;;;14.80;99.90;;;;;;6244507;23;19997;-73
2022/04/13 04:42:58;;;;;;;12.75;6.03;;;14.70;99.90;;;;;;6246781;23;20075;-73
2022/04/13 04:45:24;;;;;;;12.82;7.00;;;14.70;99.90;;;;;;6246612;22;20458;-73
2022/04/13 04:47:51;;;;;;;11.00;6.20;;;14.70;99.90;;;;;;6246367;22;20055;-73
2022/04/13 04:50:17;;;;;;;11.32;6.10;;;14.60;99.90;;;;;;6246749;22;20424;-73
2022/04/13 04:52:44;;;;;;;14.85;7.15;;;14.60;99.90;;;;;;6246483;22;20008;-72
2022/04/13 04:55:11;;;;;;;14.93;6.72;;;14.60;99.90;;;;;;6246830;22;20004;-73
2022/04/13 04:57:37;;;;;;;18.58;7.45;;;14.60;99.90;;;;;;6246772;22;20014;-72
2022/04/13 05:00:08;;;;;;;15.93;7.60;;;14.60;99.90;;;;;;6246396;22;20035;-73
2022/04/13 05:02:35;;;;;;;10.27;5.72;;;14.50;99.90;;;;;;6246419;22;20004;-73
2022/04/13 05:05:01;;;;;;;10.98;5.90;;;14.50;99.90;;;;;;6246672;22;20000;-73
2022/04/13 05:07:27;;;;;;;13.38;5.60;;;14.50;99.90;;;;;;6246522;22;20012;-73
2022/04/13 05:09:53;;;;;;;8.95;5.50;;;14.40;99.90;;;;;;6245154;23;20039;-73
2022/04/13 05:12:18;;;;;;;11.05;4.95;;;14.40;99.90;;;;;;6246493;22;20008;-73
2022/04/13 05:14:44;;;;;;;10.40;5.55;;;14.40;99.90;;;;;;6245837;23;20001;-73
2022/04/13 05:17:10;;;;;;;13.57;6.40;;;14.40;99.90;;;;;;6245009;23;20000;-73
2022/04/13 05:19:35;;;;;;;11.27;6.30;;;14.40;99.90;;;;;;6246269;23;20050;-73
2022/04/13 05:22:01;;;;;;;20.60;6.90;;;14.40;99.90;;;;;;6246376;23;20334;-73
2022/04/13 05:24:27;;;;;;;16.92;6.60;;;14.40;99.90;;;;;;6246314;23;20004;-73
2022/04/13 05:26:52;;;;;;;13.75;7.50;;;14.30;99.90;;;;;;6246048;23;20008;-73
2022/04/13 05:29:18;;;;;;;12.73;7.22;;;14.30;99.90;;;;;;6246641;23;19996;-73
2022/04/13 05:31:44;;;;;;;16.05;6.93;;;14.30;99.90;;;;;;6245954;22;20004;-73
2022/04/13 05:34:09;;;;;;;13.60;6.57;;;14.30;99.90;;;;;;6246308;23;20078;-73
2022/04/13 05:36:35;;;;;;;15.52;6.95;;;14.40;99.90;;;;;;6245316;23;20050;-73
2022/04/13 05:39:01;;;;;;;11.48;7.18;;;14.30;99.90;;;;;;6245480;23;20075;-73
2022/04/13 05:41:26;;;;;;;10.73;7.32;;;14.40;99.90;;;;;;6246366;23;20330;-73
2022/04/13 05:43:52;;;;;;;13.05;7.40;;;14.40;99.90;;;;;;6246597;23;20317;-73
2022/04/13 05:46:18;;;;;;;12.55;7.10;;;14.50;99.90;;;;;;6244502;23;20008;-73
2022/04/13 05:48:43;;;;;;;13.50;7.80;;;14.50;99.90;;;;;;6246440;22;20000;-73
2022/04/13 05:51:09;;;;;;;13.55;7.18;;;14.60;99.90;;;;;;6244541;23;20033;-73
2022/04/13 05:53:36;;;;;;;14.15;8.50;;;14.60;99.90;;;;;;6245103;23;20023;-73
2022/04/13 05:56:02;;;;;;;16.30;8.70;;;14.70;99.90;;;;;;6245157;22;20000;-73
2022/04/13 05:58:28;;;;;;;16.10;9.75;;;14.60;99.90;;;;;;6246067;22;20000;-74
2022/04/13 06:00:54;;;;;;;19.48;8.48;;;14.60;99.90;;;;;;6245112;23;20012;-74
2022/04/13 06:03:22;;;;;;;13.98;8.77;;;14.60;99.90;;;;;;6246107;22;20079;-73
2022/04/13 06:05:48;;;;;;;20.42;9.95;;;14.70;99.90;;;;;;6245400;22;19996;-73
2022/04/13 06:08:13;;;;;;;18.60;8.52;;;14.80;99.90;;;;;;6245207;22;20004;-73
2022/04/13 06:10:39;;;;;;;23.08;9.57;;;14.90;99.90;;;;;;6245806;23;20007;-73
2022/04/13 06:13:05;;;;;;;17.35;8.90;;;15.00;99.90;;;;;;6245038;23;20083;-73
2022/04/13 06:15:31;;;;;;;20.65;9.82;;;15.00;99.90;;;;;;6244387;22;19996;-74
2022/04/13 06:17:57;;;;;;;17.65;9.02;;;15.00;99.90;;;;;;6245385;22;20027;-73
2022/04/13 06:20:23;;;;;;;18.15;9.57;;;15.10;99.90;;;;;;6245604;22;20142;-73
2022/04/13 06:22:49;;;;;;;21.27;10.23;;;15.20;99.90;;;;;;6244326;22;20433;-73
2022/04/13 06:25:15;;;;;;;20.30;9.60;;;15.20;99.90;;;;;;6245929;22;20011;-74
2022/04/13 06:27:41;;;;;;;17.40;9.88;;;15.20;99.90;;;;;;6268902;22;20012;-74
2022/04/13 06:30:09;;;;;;;14.32;9.02;;;15.30;99.90;;;;;;6245287;23;20004;-74
2022/04/13 06:32:36;;;;;;;15.50;8.88;;;15.40;99.90;;;;;;6245980;22;20014;-74
2022/04/13 06:35:04;;;;;;;16.98;9.52;;;15.40;99.90;;;;;;6245464;22;20425;-74
2022/04/13 06:37:30;;;;;;;17.77;9.98;;;15.50;99.90;;;;;;6244793;22;20012;-74
2022/04/13 06:39:55;;;;;;;20.17;10.18;;;15.60;99.90;;;;;;6245912;22;20024;-74
2022/04/13 06:42:22;;;;;;;14.93;10.55;;;15.70;99.90;;;;;;6246119;23;20451;-74
2022/04/13 06:44:54;;;;;;;15.43;9.77;;;15.70;99.90;;;;;;6245679;22;20031;-73
2022/04/13 06:47:20;;;;;;;21.88;10.63;;;15.80;99.90;;;;;;6245896;23;20036;-73
2022/04/13 06:49:47;;;;;;;15.60;9.80;;;15.80;99.90;;;;;;6243777;22;20487;-74
2022/04/13 06:52:13;;;;;;;17.90;10.15;;;15.90;99.90;;;;;;6245207;22;20329;-75
2022/04/13 06:54:40;;;;;;;18.40;11.23;;;16.00;99.90;;;;;;6244063;22;20418;-75
2022/04/13 06:57:05;;;;;;;21.02;11.73;;;16.00;99.90;;;;;;6245508;22;20122;-74
2022/04/13 06:59:31;;;;;;;22.10;11.23;;;16.10;99.90;;;;;;6245040;23;20437;-75
2022/04/13 07:01:57;;;;;;;21.90;13.02;;;16.10;99.90;;;;;;6246108;23;20054;-75
2022/04/13 07:04:23;;;;;;;22.30;11.63;;;16.20;99.90;;;;;;6245735;23;20030;-75
2022/04/13 07:06:48;;;;;;;24.90;13.02;;;16.30;99.90;;;;;;6245928;23;20443;-75
2022/04/13 07:09:14;;;;;;;27.40;13.27;;;16.30;99.90;;;;;;6245730;23;20007;-75
2022/04/13 07:11:39;;;;;;;21.08;12.70;;;16.50;99.90;;;;;;6245764;23;20054;-76
2022/04/13 07:14:05;;;;;;;23.25;12.18;;;16.60;99.90;;;;;;6245150;22;20004;-77
2022/04/13 07:16:31;;;;;;;27.58;13.93;;;16.70;99.90;;;;;;6245947;23;19997;-74
2022/04/13 07:18:57;;;;;;;17.92;12.52;;;16.70;99.90;;;;;;6243573;23;20044;-75
2022/04/13 07:21:22;;;;;;;26.38;13.93;;;16.70;99.90;;;;;;6246191;23;20000;-76
2022/04/13 07:23:48;;;;;;;14.75;10.98;;;16.70;99.90;;;;;;6245790;23;20080;-74
2022/04/13 07:26:13;;;;;;;20.75;11.45;;;16.70;99.90;;;;;;6245476;23;20012;-74
2022/04/13 07:28:39;;;;;;;20.80;11.95;;;16.70;99.90;;;;;;6245095;23;20004;-73
2022/04/13 07:31:05;;;;;;;19.65;10.88;;;16.80;99.90;;;;;;6245676;23;20075;-74
2022/04/13 07:33:30;;;;;;;17.98;11.15;;;16.90;99.90;;;;;;6245743;22;20071;-75
2022/04/13 07:35:56;;;;;;;19.27;11.10;;;16.90;99.90;;;;;;6244931;23;20445;-76
2022/04/13 07:38:22;;;;;;;19.48;11.45;;;16.90;99.90;;;;;;6244692;23;20026;-75
2022/04/13 07:40:48;;;;;;;24.33;11.90;;;17.00;99.90;;;;;;6245579;23;20026;-76
2022/04/13 07:43:15;;;;;;;21.08;11.70;;;17.10;99.90;;;;;;6245357;22;20373;-75
2022/04/13 07:45:41;;;;;;;20.50;12.75;;;17.20;99.90;;;;;;6243932;23;20303;-75
2022/04/13 07:48:07;;;;;;;20.83;12.48;;;17.30;99.90;;;;;;6245754;22;20012;-75
2022/04/13 07:50:33;;;;;;;20.40;11.77;;;17.40;99.90;;;;;;6245002;23;20004;-75
2022/04/13 07:52:59;;;;;;;17.30;11.32;;;17.50;99.90;;;;;;6245273;22;20011;-74
2022/04/13 07:55:25;;;;;;;22.30;13.35;;;17.70;99.90;;;;;;6245014;22;20011;-75
2022/04/13 07:57:50;;;;;;;22.58;13.88;;;17.70;99.90;;;;;;6245394;22;20000;-74
2022/04/13 08:00:16;;;;;;;18.17;12.93;;;18.00;99.90;;;;;;6245435;23;20014;-74
2022/04/13 08:02:43;;;;;;;25.83;13.23;;;18.00;99.90;;;;;;6245690;22;20004;-74
2022/04/13 08:05:12;;;;;;;23.00;13.68;;;18.10;99.90;;;;;;6245721;22;20007;-74
2022/04/13 08:07:38;;;;;;;19.58;14.05;;;18.20;99.90;;;;;;6247440;22;20027;-74
2022/04/13 08:10:04;;;;;;;22.15;12.98;;;18.20;99.90;;;;;;6247405;22;19996;-75
2022/04/13 08:12:31;;;;;;;19.75;12.88;;;18.30;99.90;;;;;;6247256;22;20004;-74
2022/04/13 08:14:57;;;;;;;23.80;13.20;;;18.30;99.90;;;;;;6246883;22;20027;-74
2022/04/13 08:17:24;;;;;;;19.30;12.57;;;18.50;99.90;;;;;;6247420;22;20011;-74
2022/04/13 08:19:50;;;;;;;24.17;13.05;;;18.70;99.90;;;;;;6247331;22;20000;-74
2022/04/13 08:22:17;;;;;;;22.90;14.13;;;18.70;99.90;;;;;;6245849;23;20008;-75
2022/04/13 08:24:43;;;;;;;19.98;14.35;;;18.70;99.90;;;;;;6247356;22;20000;-74
2022/04/13 08:27:10;;;;;;;20.85;13.75;;;18.60;99.90;;;;;;6245356;22;20536;-75
2022/04/13 08:29:35;;;;;;;24.33;13.40;;;18.60;99.90;;;;;;6246652;22;19997;-74
2022/04/13 08:32:02;;;;;;;24.83;13.57;;;18.60;99.90;;;;;;6245793;22;20000;-75
2022/04/13 08:34:27;;;;;;;20.92;12.95;;;18.60;99.90;;;;;;6247330;22;20000;-75
2022/04/13 08:36:53;;;;;;;29.02;13.27;;;18.60;99.90;;;;;;6247061;23;20470;-75
2022/04/13 08:39:19;;;;;;;24.00;13.27;;;18.60;99.90;;;;;;6243555;23;20316;-74
2022/04/13 08:42:25;;;;;;;43.33;14.77;;;18.60;99.90;;;;;;6245354;23;20000;-74
2022/04/13 08:44:52;;;;;;;19.35;12.70;;;18.60;99.90;;;;;;6246440;23;20087;-73
2022/04/13 08:47:23;;;;;;;24.38;13.98;;;18.70;99.90;;;;;;6246426;22;20427;-72
2022/04/13 08:49:51;;;;;;;24.42;15.02;;;18.70;99.90;;;;;;6247482;22;20053;-73
2022/04/13 08:52:27;;;;;;;21.65;12.90;;;18.80;99.90;;;;;;6246992;22;20009;-74
2022/04/13 08:54:55;;;;;;;23.30;14.88;;;19.00;99.90;;;;;;6245099;23;20046;-73
2022/04/13 08:57:23;;;;;;;26.90;15.63;;;19.00;99.90;;;;;;6246848;23;20004;-73
2022/04/13 08:59:57;;;;;;;26.50;15.15;;;19.00;99.90;;;;;;6246939;22;20087;-74
2022/04/13 09:02:50;;;;;;;22.58;14.70;;;19.10;99.90;;;;;;6243351;23;20075;-74
2022/04/13 09:05:26;;;;;;;21.88;15.38;;;19.20;99.90;;;;;;6246669;23;20042;-73
2022/04/13 09:08:11;;;;;;;25.48;17.02;;;19.10;99.90;;;;;;6243848;23;20095;-73
2022/04/13 09:10:39;;;;;;;25.35;16.52;;;19.20;99.90;;;;;;6244614;23;20008;-74
2022/04/13 09:13:09;;;;;;;28.73;16.48;;;19.10;99.90;;;;;;6246383;22;19996;-74
2022/04/13 09:15:40;;;;;;;29.00;17.65;;;19.00;99.90;;;;;;6244700;22;20008;-74
2022/04/13 09:18:09;;;;;;;27.92;17.92;;;19.10;99.90;;;;;;6246110;22;20004;-74
2022/04/13 09:20:35;;;;;;;28.25;17.60;;;19.10;99.90;;;;;;6246521;22;20006;-74
2022/04/13 09:23:02;;;;;;;28.70;17.40;;;18.90;99.90;;;;;;6245856;22;20472;-73
2022/04/13 09:25:31;;;;;;;26.02;17.00;;;18.90;99.90;;;;;;6246469;22;20325;-74
2022/04/13 09:27:59;;;;;;;24.20;15.23;;;18.90;99.90;;;;;;6246184;22;20382;-73
2022/04/13 09:30:24;;;;;;;26.95;14.00;;;18.90;99.90;;;;;;6246325;22;20031;-74
2022/04/13 09:32:50;;;;;;;27.23;15.45;;;19.00;99.90;;;;;;6246456;23;20000;-73
2022/04/13 09:35:17;;;;;;;38.30;14.82;;;18.90;99.90;;;;;;6246715;23;20000;-74
2022/04/13 09:37:43;;;;;;;26.40;13.88;;;18.90;99.90;;;;;;6244427;23;20377;-74
2022/04/13 09:40:10;;;;;;;24.17;13.65;;;18.90;99.90;;;;;;6246460;22;20000;-73
2022/04/13 09:42:36;;;;;;;27.08;14.15;;;19.00;99.90;;;;;;6246496;22;20027;-73
2022/04/13 09:45:03;;;;;;;28.45;15.23;;;19.00;99.90;;;;;;6246778;23;19996;-74
2022/04/13 09:47:33;;;;;;;25.27;14.98;;;19.00;99.90;;;;;;6246148;22;20015;-74
2022/04/13 09:50:00;;;;;;;23.25;13.45;;;19.00;99.90;;;;;;6246687;22;20000;-74
2022/04/13 09:52:37;;;;;;;25.63;15.77;;;18.90;99.90;;;;;;6246038;22;20011;-74
2022/04/13 09:55:09;;;;;;;20.60;14.25;;;18.80;99.90;;;;;;6246433;23;20448;-73
2022/04/13 09:57:35;;;;;;;22.73;14.75;;;18.80;99.90;;;;;;6246343;22;20075;-73
2022/04/13 10:00:05;;;;;;;27.13;16.05;;;18.80;99.90;;;;;;6245969;23;20081;-73
2022/04/13 10:02:48;;;;;;;32.40;16.25;;;18.90;99.90;;;;;;6245759;22;20055;-74
2022/04/13 10:05:16;;;;;;;26.27;17.23;;;18.90;99.90;;;;;;6246255;23;20053;-74
2022/04/13 10:07:43;;;;;;;27.27;15.93;;;19.10;99.90;;;;;;6245632;23;20012;-74
2022/04/13 10:10:23;;;;;;;28.50;15.90;;;19.10;99.90;;;;;;6246255;22;20044;-74
2022/04/13 10:12:49;;;;;;;30.70;18.02;;;19.10;99.90;;;;;;6246467;22;19996;-74
2022/04/13 10:15:15;;;;;;;30.65;18.13;;;19.10;99.90;;;;;;6246304;22;20008;-74
2022/04/13 10:17:42;;;;;;;28.90;19.45;;;19.10;99.90;;;;;;6246058;22;20066;-74
2022/04/13 10:20:08;;;;;;;32.53;20.20;;;19.30;99.90;;;;;;6246171;22;20014;-74
2022/04/13 10:22:54;;;;;;;33.08;19.60;;;19.40;99.90;;;;;;6245444;22;20429;-74
2022/04/13 10:25:29;;;;;;;29.35;19.27;;;19.50;99.90;;;;;;6246068;23;20487;-74
2022/04/13 10:28:04;;;;;;;26.88;19.58;;;19.50;99.90;;;;;;6245749;22;20335;-74
2022/04/13 10:30:39;;;;;;;34.45;23.73;;;19.40;99.90;;;;;;6246152;22;20000;-74
2022/04/13 10:33:05;;;;;;;37.00;26.45;;;19.40;99.90;;;;;;6246088;22;20004;-73
2022/04/13 10:35:36;;;;;;;44.38;30.45;;;19.30;99.90;;;;;;6244340;23;20075;-74
2022/04/13 10:38:03;;;;;;;40.92;29.38;;;19.20;99.90;;;;;;6246437;22;20365;-73
2022/04/13 10:40:40;;;;;;;41.85;30.90;;;19.20;99.90;;;;;;6246116;22;20028;-73
2022/04/13 10:43:08;;;;;;;40.58;32.05;;;19.20;99.90;;;;;;6244639;23;20353;-74
2022/04/13 10:45:37;;;;;;;39.97;29.35;;;19.20;99.90;;;;;;6245178;22;20031;-75
2022/04/13 10:48:06;;;;;;;33.92;27.63;;;19.10;99.90;;;;;;6244800;22;20016;-74
2022/04/13 10:50:54;;;;;;;35.25;25.85;;;19.10;99.90;;;;;;6244180;23;20008;-74
2022/04/13 10:53:44;;;;;;;36.15;26.63;;;19.00;99.90;;;;;;6245708;22;20015;-75
2022/04/13 10:56:11;;;;;;;35.05;26.58;;;19.00;99.90;;;;;;6245932;22;20000;-74
2022/04/13 10:59:02;;;;;;;36.53;24.15;;;18.90;99.90;;;;;;6243484;22;20011;-75
2022/04/13 11:01:38;;;;;;;34.88;24.95;;;18.90;99.90;;;;;;6242317;23;20024;-75
2022/04/13 11:04:06;;;;;;;33.25;23.75;;;19.00;99.90;;;;;;6243937;23;20445;-75
2022/04/13 11:06:32;;;;;;;37.55;24.92;;;19.00;99.90;;;;;;6244736;22;20044;-75
2022/04/13 11:09:04;;;;;;;37.58;23.55;;;19.10;99.90;;;;;;6245096;22;20000;-75
2022/04/13 11:11:31;;;;;;;32.35;23.45;;;19.10;99.90;;;;;;6244714;22;20004;-75
2022/04/13 11:13:57;;;;;;;31.65;22.30;;;19.00;99.90;;;;;;6245426;22;20096;-75
2022/04/13 11:16:25;;;;;;;32.33;21.90;;;19.00;99.90;;;;;;6244809;23;20028;-75
2022/04/13 11:19:05;;;;;;;37.15;22.17;;;19.00;99.90;;;;;;6244818;22;20004;-75
2022/04/13 11:21:54;;;;;;;33.80;22.70;;;19.00;99.90;;;;;;6244595;23;20058;-75
2022/04/13 11:24:38;;;;;;;35.25;24.25;;;19.00;99.90;;;;;;6243572;23;20464;-75
2022/04/13 11:27:05;;;;;;;35.33;23.92;;;18.90;99.90;;;;;;6245279;23;20090;-75
2022/04/13 11:29:35;;;;;;;34.92;24.90;;;18.90;99.90;;;;;;6244665;22;20126;-74
2022/04/13 11:32:01;;;;;;;31.65;23.63;;;18.90;99.90;;;;;;6244978;22;20031;-74
2022/04/13 11:34:31;;;;;;;41.28;26.25;;;18.90;99.90;;;;;;6245275;23;20007;-73
2022/04/13 11:37:02;;;;;;;33.10;22.83;;;18.80;99.90;;;;;;6245283;22;20107;-74
2022/04/13 11:39:48;;;;;;;34.85;23.92;;;18.80;99.90;;;;;;6244956;22;20075;-74
2022/04/13 11:42:38;;;;;;;37.30;23.75;;;18.90;99.90;;;;;;6247039;22;20000;-75
2022/04/13 11:45:11;;;;;;;36.67;23.70;;;18.90;99.90;;;;;;6246808;22;20422;-75
2022/04/13 11:47:39;;;;;;;37.90;24.73;;;18.90;99.90;;;;;;6246401;22;20016;-76
2022/04/13 11:50:20;;;;;;;32.63;20.58;;;19.00;99.90;;;;;;6246517;22;20042;-75
2022/04/13 11:53:13;;;;;;;33.25;22.08;;;19.00;99.90;;;;;;6247111;22;20011;-75
2022/04/13 11:55:46;;;;;;;32.75;19.00;;;19.00;99.90;;;;;;6246880;22;20000;-75
2022/04/13 11:58:13;;;;;;;30.13;20.73;;;19.00;99.90;;;;;;6246740;22;20012;-75
2022/04/13 12:00:41;;;;;;;31.70;19.60;;;19.10;99.90;;;;;;6246770;22;20004;-75
2022/04/13 12:03:20;;;;;;;28.10;19.13;;;19.10;99.90;;;;;;6246453;23;20011;-75
2022/04/13 12:05:47;;;;;;;31.50;19.50;;;19.10;99.90;;;;;;6245336;23;20000;-75
2022/04/13 12:08:19;;;;;;;31.58;19.77;;;19.20;99.90;;;;;;6246752;22;20012;-75
2022/04/13 12:11:10;;;;;;;26.55;18.13;;;19.20;99.90;;;;;;6246515;22;20004;-75
2022/04/13 12:13:56;;;;;;;28.90;19.83;;;19.30;99.90;;;;;;6235621;23;20020;-75
2022/04/13 12:16:26;;;;;;;28.77;18.40;;;19.30;99.90;;;;;;6246305;22;20084;-75
2022/04/13 12:18:55;;;;;;;31.17;18.70;;;19.30;99.90;;;;;;6246624;22;20016;-74
2022/04/13 12:21:23;;;;;;;32.80;17.08;;;19.40;99.90;;;;;;6246451;22;20008;-74
2022/04/13 12:23:50;;;;;;;28.17;16.95;;;19.50;99.90;;;;;;6247389;22;20001;-74
2022/04/13 12:26:17;;;;;;;23.88;17.13;;;19.50;99.90;;;;;;6246699;22;20433;-74
2022/04/13 12:28:42;;;;;;;24.23;16.27;;;19.60;99.90;;;;;;6244992;23;20334;-74
2022/04/13 12:31:10;;;;;;;27.52;16.50;;;19.70;99.90;;;;;;6246221;23;19997;-74
2022/04/13 12:33:38;;;;;;;27.42;16.70;;;19.70;99.90;;;;;;6246517;22;20004;-74
2022/04/13 12:36:10;;;;;;;28.67;16.92;;;19.90;99.90;;;;;;6246629;22;20030;-74
2022/04/13 12:38:43;;;;;;;24.98;15.85;;;19.90;99.90;;;;;;6246555;22;20425;-74